AKDT,Max TemperatureF,Mean TemperatureF,Min TemperatureF,Max Dew PointF,MeanDew PointF,Min DewpointF,Max Humidity, Mean Humidity, Min Humidity, Max Sea Level PressureIn, Mean Sea Level PressureIn, Min Sea Level PressureIn, Max VisibilityMiles, Mean VisibilityMiles, Min VisibilityMiles, Max Wind SpeedMPH, Mean Wind SpeedMPH, Max Gust SpeedMPH,PrecipitationIn, CloudCover, Events, WindDirDegrees
2013-9-1,54,48,42,41,38,36,0,0,0,29.82,29.68,29.49,10,10,10,16,11,22,0.00,5,,53
2013-9-2,51,48,45,52,45,38,0,0,0,29.48,29.17,29.05,10,7,1,26,14,35,0.27,8,Rain,69
2013-9-3,54,50,46,50,48,45,0,0,0,29.13,29.10,29.08,10,10,2,15,5,17,0.17,7,Rain,74
2013-9-4,54,51,47,52,48,43,0,0,0,29.42,29.23,29.14,10,10,4,22,7,25,0.33,8,Rain,117
2013-9-5,53,47,41,48,43,39,0,0,0,29.70,29.54,29.44,10,10,3,16,8,20,T,5,Rain,103
2013-9-6,52,46,40,47,44,39,0,0,0,29.78,29.75,29.72,10,9,3,9,4,12,0.08,7,Rain,77
2013-9-7,52,44,36,44,39,35,0,0,0,29.82,29.78,29.73,10,10,10,12,5,14,0.00,4,,272
2013-9-8,49,41,33,40,36,31,0,0,0,29.75,29.73,29.71,10,10,10,8,3,12,0.00,3,,245
2013-9-9,55,45,35,44,37,33,0,0,0,29.73,29.67,29.60,10,10,10,13,5,14,T,4,Rain,344
2013-9-10,50,47,43,47,44,41,0,0,0,29.61,29.57,29.56,10,10,10,9,2,10,0.01,7,Rain,227
2013-9-11,48,43,37,45,39,36,0,0,0,29.74,29.68,29.59,10,10,5,16,6,18,0.00,7,,231
2013-9-12,48,42,35,46,42,35,0,0,0,29.78,29.71,29.69,10,8,4,20,10,28,0.70,8,Rain,211
2013-9-13,53,44,35,46,41,34,0,0,0,29.99,29.86,29.81,10,8,1,20,7,25,0.05,7,Rain,238
2013-9-14,46,40,34,43,37,32,0,0,0,30.15,30.10,30.02,10,9,2,12,6,14,0.02,8,,58
2013-9-15,47,45,42,45,43,42,0,0,0,30.15,30.11,30.03,10,6,1,15,8,17,0.14,8,Rain,89
2013-9-16,51,44,37,42,38,34,0,0,0,30.04,29.97,29.93,10,10,10,14,5,16,0.00,6,,4
2013-9-17,44,37,30,33,26,23,0,0,0,29.94,29.93,29.92,10,10,10,24,12,29,0.00,2,,348
2013-9-18,41,34,26,29,25,22,0,0,0,29.94,29.88,29.80,10,10,10,13,5,17,T,4,,308
2013-9-19,39,35,30,28,24,21,0,0,0,29.79,29.76,29.68,10,9,2,10,5,15,T,8,Snow,3
2013-9-20,37,30,22,23,21,19,0,0,0,29.68,29.49,29.32,10,10,10,13,5,17,0.00,6,,8
2013-9-21,44,37,29,33,28,22,0,0,0,29.49,29.35,29.30,10,10,9,21,7,25,T,6,Snow,317
2013-9-22,39,33,26,32,27,23,0,0,0,29.63,29.57,29.50,10,10,10,20,10,23,0.00,6,,310
2013-9-23,41,34,26,34,30,23,0,0,0,29.77,29.69,29.63,10,8,0,25,7,32,0.13,7,Fog-Rain-Snow,257
2013-9-24,40,37,33,36,32,29,0,0,0,29.78,29.67,29.48,10,9,2,22,9,25,0.08,8,Rain-Snow,59
2013-9-25,41,36,30,32,29,24,0,0,0,29.69,29.51,29.43,10,9,3,360,9,360,T,7,Snow,357
2013-9-26,39,34,29,29,25,22,0,0,0,29.70,29.54,29.34,10,10,10,17,9,22,0.00,7,,43
2013-9-27,44,36,27,27,24,22,0,0,0,29.68,29.50,29.34,10,10,10,24,11,31,0.00,4,,338
2013-9-28,38,34,29,27,25,21,0,0,0,29.89,29.78,29.69,10,10,10,20,9,24,T,5,,318
2013-9-29,38,32,26,27,22,18,0,0,0,30.04,30.00,29.91,10,10,9,18,11,24,T,4,Snow,306
2013-9-30,39,30,21,24,20,18,0,0,0,30.10,30.07,30.04,10,10,9,14,6,17,0.00,3,,332